Time;durP1;ratioP1;P1;durP2;ratioP2;P2;SDS_P1;SDS_P2;PMS_P1;PMS_P2;Temp;Humidity;BMP_temperature;BMP_pressure;BME280_temperature;BME280_humidity;BME280_pressure;Samples;Min_cycle;Max_cycle;Signal;HPM_P1;HPM_P2
2023/10/04 00:01:22;;;;;;;4.90;1.90;;;;;;;9.85;100.00;99306.41;6110236;19;20013;-71
2023/10/04 00:03:22;;;;;;;4.97;3.10;;;;;;;9.80;100.00;99312.19;6111925;19;20396;-71
2023/10/04 00:05:24;;;;;;;5.65;2.55;;;;;;;9.75;100.00;99315.19;6110728;19;20006;-71
2023/10/04 00:07:25;;;;;;;3.38;2.58;;;;;;;9.70;100.00;99319.03;6111193;19;20324;-71
2023/10/04 00:09:26;;;;;;;2.75;2.40;;;;;;;9.67;100.00;99327.19;6110296;19;20024;-71
2023/10/04 00:11:26;;;;;;;4.28;1.90;;;;;;;9.64;100.00;99330.69;6109724;19;20006;-71
2023/10/04 00:13:26;;;;;;;2.35;2.03;;;;;;;9.60;100.00;99336.09;6110709;19;20034;-71
2023/10/04 00:15:29;;;;;;;4.30;2.17;;;;;;;9.60;100.00;99338.88;6111112;19;20021;-71
2023/10/04 00:17:29;;;;;;;4.35;2.60;;;;;;;9.58;100.00;99344.72;6110101;19;20023;-71
2023/10/04 00:19:29;;;;;;;4.72;2.53;;;;;;;9.55;100.00;99350.97;6110051;19;20463;-71
2023/10/04 00:21:30;;;;;;;5.85;2.40;;;;;;;9.53;100.00;99346.94;6109274;19;20021;-71
2023/10/04 00:23:30;;;;;;;3.38;2.10;;;;;;;9.52;100.00;99365.47;6108714;19;20022;-71
2023/10/04 00:25:33;;;;;;;4.57;2.20;;;;;;;9.50;100.00;99362.25;6109996;19;20013;-71
2023/10/04 00:27:33;;;;;;;;;;;;;;;9.50;100.00;99362.25;6110128;19;20010;-71
2023/10/04 00:29:33;;;;;;;3.42;2.30;;;;;;;9.50;100.00;99361.44;6108911;19;19923;-71
2023/10/04 00:31:33;;;;;;;3.92;2.03;;;;;;;9.44;100.00;99365.63;6108300;19;20010;-71
2023/10/04 00:33:35;;;;;;;5.90;2.13;;;;;;;9.43;100.00;99362.06;6109170;19;20343;-71
2023/10/04 00:35:40;;;;;;;2.85;1.92;;;;;;;9.42;100.00;99365.94;6109069;19;20034;-71
2023/10/04 00:37:45;;;;;;;4.07;2.00;;;;;;;9.39;100.00;99357.56;6110019;19;20062;-71
2023/10/04 00:39:46;;;;;;;11.90;3.10;;;;;;;9.39;100.00;99358.38;6107638;19;20026;-71
2023/10/04 00:41:47;;;;;;;3.08;2.15;;;;;;;9.37;100.00;99366.22;6108067;19;20002;-71
2023/10/04 00:43:51;;;;;;;3.80;2.00;;;;;;;9.39;100.00;99366.66;6110280;19;20005;-71
2023/10/04 00:45:53;;;;;;;3.72;2.40;;;;;;;9.41;100.00;99358.81;6109577;19;20006;-71
2023/10/04 00:47:57;;;;;;;3.97;2.17;;;;;;;9.40;100.00;99357.22;6108861;19;20345;-71
2023/10/04 00:50:07;;;;;;;3.70;2.17;;;;;;;9.40;100.00;99364.69;6109553;19;20033;-71
2023/10/04 00:52:08;;;;;;;3.97;2.00;;;;;;;9.41;100.00;99356.06;6107334;19;20383;-71
2023/10/04 00:54:10;;;;;;;5.65;2.20;;;;;;;9.45;100.00;99362.50;6110049;19;20066;-71
2023/10/04 00:56:14;;;;;;;3.33;2.00;;;;;;;9.46;100.00;99364.09;6108692;19;20006;-71
2023/10/04 00:58:19;;;;;;;3.13;2.33;;;;;;;9.49;100.00;99368.13;6109299;19;20015;-71
2023/10/04 01:00:24;;;;;;;3.70;2.00;;;;;;;9.48;100.00;99372.03;6108453;19;20431;-71
2023/10/04 01:02:25;;;;;;;4.65;2.50;;;;;;;9.50;100.00;99381.59;6107590;19;20003;-71
2023/10/04 01:04:25;;;;;;;5.80;2.60;;;;;;;9.46;100.00;99371.59;6110673;19;20022;-71
2023/10/04 01:06:26;;;;;;;6.18;2.13;;;;;;;9.48;100.00;99378.38;6109965;19;20494;-71
2023/10/04 01:08:28;;;;;;;4.18;2.30;;;;;;;9.47;100.00;99382.28;6109330;19;20014;-71
2023/10/04 01:10:33;;;;;;;6.47;2.15;;;;;;;9.43;100.00;99372.28;6108345;19;20007;-71
2023/10/04 01:12:33;;;;;;;7.30;2.75;;;;;;;9.45;100.00;99373.56;6109552;19;20006;-71
2023/10/04 01:14:38;;;;;;;3.22;2.03;;;;;;;9.42;100.00;99367.91;6110449;19;20005;-71
2023/10/04 01:16:41;;;;;;;4.40;2.20;;;;;;;9.34;100.00;99375.16;6109246;19;20007;-71
2023/10/04 01:18:44;;;;;;;6.68;2.50;;;;;;;9.28;100.00;99374.63;6109111;19;20019;-71
2023/10/04 01:20:46;;;;;;;5.70;2.60;;;;;;;9.15;100.00;99374.97;6107635;19;20002;-71
2023/10/04 01:22:46;;;;;;;5.13;2.65;;;;;;;9.04;100.00;99371.88;6109830;19;20066;-71
2023/10/04 01:24:46;;;;;;;5.10;2.33;;;;;;;8.98;100.00;99370.50;6109241;19;20033;-71
2023/10/04 01:26:47;;;;;;;3.20;2.35;;;;;;;8.97;100.00;99374.41;6107951;19;20129;-71
2023/10/04 01:28:47;;;;;;;4.40;1.98;;;;;;;8.91;100.00;99368.31;6109299;19;20329;-71
2023/10/04 01:30:49;;;;;;;4.65;2.60;;;;;;;8.91;100.00;99376.59;6108264;19;20007;-71
2023/10/04 01:32:50;;;;;;;3.58;2.40;;;;;;;8.88;100.00;99366.25;6109558;19;20010;-71
2023/10/04 01:34:50;;;;;;;5.38;2.45;;;;;;;8.85;100.00;99368.88;6103936;19;20025;-71
2023/10/04 01:36:51;;;;;;;5.35;2.45;;;;;;;8.83;100.00;99363.72;6109396;19;20502;-71
2023/10/04 01:38:53;;;;;;;4.70;2.72;;;;;;;8.80;100.00;99371.88;6108149;19;20020;-71
2023/10/04 01:40:55;;;;;;;5.68;3.13;;;;;;;8.78;100.00;99375.00;6106960;19;20010;-71
2023/10/04 01:42:59;;;;;;;4.65;2.63;;;;;;;8.85;100.00;99372.44;6108239;19;20003;-71
2023/10/04 01:44:59;;;;;;;5.00;2.75;;;;;;;8.86;100.00;99378.78;6108415;19;20006;-71
2023/10/04 01:47:02;;;;;;;6.13;3.03;;;;;;;8.94;100.00;99377.88;6108828;19;20013;-71
2023/10/04 01:49:03;;;;;;;4.97;2.67;;;;;;;8.94;100.00;99389.72;6107609;19;20066;-71
2023/10/04 01:51:04;;;;;;;7.15;3.03;;;;;;;8.98;100.00;99387.06;6107024;19;20460;-71
2023/10/04 01:53:06;;;;;;;5.82;2.67;;;;;;;8.98;100.00;99389.81;6107650;19;20010;-71
2023/10/04 01:55:10;;;;;;;4.88;2.30;;;;;;;8.99;100.00;99385.91;6108478;19;20031;-71
2023/10/04 01:57:10;;;;;;;3.55;2.60;;;;;;;8.95;100.00;99391.31;6108238;19;20010;-71
2023/10/04 01:59:13;;;;;;;3.90;2.38;;;;;;;9.01;100.00;99400.16;6108095;19;20013;-71
2023/10/04 02:01:13;;;;;;;5.60;2.42;;;;;;;9.13;100.00;99402.94;6107802;19;20081;-71
2023/10/04 02:03:14;;;;;;;7.80;2.80;;;;;;;9.15;100.00;99406.16;6107925;19;20007;-71
2023/10/04 02:05:26;;;;;;;6.68;2.80;;;;;;;9.19;100.00;99407.09;6109378;19;20014;-71
2023/10/04 02:07:26;;;;;;;4.45;2.22;;;;;;;9.24;100.00;99400.50;6108712;19;20010;-71
2023/10/04 02:09:27;;;;;;;4.85;2.78;;;;;;;9.24;100.00;99401.31;6106849;19;20007;-71
2023/10/04 02:11:27;;;;;;;5.38;2.53;;;;;;;9.22;100.00;99398.09;6107163;19;20010;-71
2023/10/04 02:13:28;;;;;;;4.85;2.20;;;;;;;9.18;100.00;99405.44;6109392;19;20006;-71
2023/10/04 02:15:28;;;;;;;4.28;2.28;;;;;;;9.24;100.00;99400.50;6108810;19;20010;-71
2023/10/04 02:17:29;;;;;;;3.60;2.53;;;;;;;9.25;100.00;99402.09;6107590;19;20011;-71
2023/10/04 02:19:29;;;;;;;4.95;2.15;;;;;;;9.27;100.00;99397.06;6107710;19;20387;-71
2023/10/04 02:21:30;;;;;;;3.85;2.33;;;;;;;9.26;100.00;99401.75;6107242;19;20006;-71
2023/10/04 02:23:30;;;;;;;5.70;2.20;;;;;;;9.26;100.00;99403.72;6107451;19;20027;-71
2023/10/04 02:25:30;;;;;;;4.50;2.25;;;;;;;9.24;100.00;99404.06;6108119;19;20006;-71
2023/10/04 02:27:31;;;;;;;5.88;2.85;;;;;;;9.27;100.00;99402.59;6107278;19;20006;-71
2023/10/04 02:29:33;;;;;;;4.05;2.33;;;;;;;9.27;100.00;99405.34;6107373;19;20009;-71
2023/10/04 02:31:34;;;;;;;4.88;2.78;;;;;;;9.34;100.00;99408.31;6107330;19;20024;-71
2023/10/04 02:33:38;;;;;;;4.38;2.38;;;;;;;9.40;100.00;99408.88;6107550;19;20089;-71
2023/10/04 02:35:43;;;;;;;4.88;2.78;;;;;;;9.42;100.00;99401.06;6106402;19;20043;-71
2023/10/04 02:37:44;;;;;;;4.32;2.22;;;;;;;9.55;100.00;99392.41;6107407;19;20074;-71
2023/10/04 02:39:45;;;;;;;5.43;2.78;;;;;;;9.54;100.00;99401.03;6107207;19;20344;-71
2023/10/04 02:41:47;;;;;;;4.82;2.47;;;;;;;9.48;100.00;99394.94;6106132;19;20010;-71
2023/10/04 02:43:47;;;;;;;5.05;2.63;;;;;;;9.55;100.00;99392.41;6107221;19;20014;-71
2023/10/04 02:45:50;;;;;;;4.20;2.67;;;;;;;9.58;100.00;99388.94;6107182;19;19998;-71
2023/10/04 02:47:52;;;;;;;4.55;2.75;;;;;;;9.62;100.00;99396.53;6106649;19;20018;-71
2023/10/04 02:49:53;;;;;;;6.43;2.85;;;;;;;9.70;100.00;99396.41;6093883;19;20022;-71
2023/10/04 02:51:54;;;;;;;4.28;2.50;;;;;;;9.77;100.00;99401.34;6105994;19;19999;-71
2023/10/04 02:53:54;;;;;;;6.05;2.78;;;;;;;9.74;100.00;99394.53;6106879;19;20066;-71
2023/10/04 02:55:57;;;;;;;4.57;2.30;;;;;;;9.73;100.00;99403.97;6105543;19;20002;-71
2023/10/04 02:58:00;;;;;;;5.82;2.70;;;;;;;9.77;100.00;99402.13;6106518;19;20017;-71
2023/10/04 03:00:23;;;;;;;7.57;2.70;;;;;;;9.78;100.00;99402.94;6106081;19;20006;-71
2023/10/04 03:02:23;;;;;;;6.25;2.97;;;;;;;9.84;100.00;99394.03;6005162;19;2006082;-71
2023/10/04 03:04:24;;;;;;;5.13;2.58;;;;;;;9.90;100.00;99399.31;6105202;19;20010;-71
2023/10/04 03:06:25;;;;;;;8.30;2.63;;;;;;;9.89;100.00;99404.03;6105788;19;20370;-71
2023/10/04 03:08:27;;;;;;;4.82;2.80;;;;;;;9.89;100.00;99409.56;6104669;19;20314;-71
2023/10/04 03:10:27;;;;;;;7.28;2.90;;;;;;;9.91;100.00;99401.72;6104920;19;20010;-71
2023/10/04 03:12:27;;;;;;;5.85;2.60;;;;;;;9.93;100.00;99407.72;6105816;19;20009;-71
2023/10/04 03:14:28;;;;;;;4.85;2.40;;;;;;;9.98;100.00;99414.97;6105496;19;20497;-71
2023/10/04 03:16:28;;;;;;;6.38;3.45;;;;;;;9.93;100.00;99413.25;6106217;19;20338;-71
2023/10/04 03:18:29;;;;;;;4.50;2.38;;;;;;;9.93;100.00;99413.25;6105945;19;20010;-71
2023/10/04 03:20:30;;;;;;;4.60;2.75;;;;;;;9.91;100.00;99423.84;6103442;19;20115;-71
2023/10/04 03:22:30;;;;;;;5.50;2.47;;;;;;;9.87;100.00;99428.47;6106240;19;20681;-71
2023/10/04 03:24:31;;;;;;;4.20;2.30;;;;;;;9.87;100.00;99431.25;6106974;19;20526;-71
2023/10/04 03:26:31;;;;;;;5.13;2.50;;;;;;;9.89;100.00;99431.69;6106990;19;20760;-71
2023/10/04 03:28:33;;;;;;;3.85;2.78;;;;;;;9.86;100.00;99432.41;6105584;19;20019;-71
2023/10/04 03:30:34;;;;;;;5.25;2.38;;;;;;;9.91;100.00;99434.09;6105045;19;20007;-71
2023/10/04 03:32:35;;;;;;;6.40;2.70;;;;;;;9.92;100.00;99425.44;6106997;19;20013;-71
2023/10/04 03:34:35;;;;;;;4.95;2.45;;;;;;;9.91;100.00;99423.03;6103854;19;20357;-71
2023/10/04 03:36:39;;;;;;;4.75;2.40;;;;;;;9.90;100.00;99424.19;6106485;19;20034;-71
2023/10/04 03:38:39;;;;;;;5.40;3.25;;;;;;;9.88;100.00;99426.50;6107025;19;20365;-71
2023/10/04 03:40:39;;;;;;;4.57;2.75;;;;;;;9.88;100.00;99419.03;6103838;19;20348;-71
2023/10/04 03:42:41;;;;;;;5.38;2.55;;;;;;;9.85;100.00;99426.06;6106566;19;20526;-71
2023/10/04 03:44:41;;;;;;;6.90;3.10;;;;;;;9.82;100.00;99425.94;6105928;19;20007;-71
2023/10/04 03:46:43;;;;;;;6.78;2.40;;;;;;;9.90;100.00;99429.72;6105317;19;20804;-72
2023/10/04 03:48:45;;;;;;;12.73;4.93;;;;;;;9.87;100.00;99430.44;6105841;19;20007;-71
2023/10/04 03:50:50;;;;;;;5.75;2.58;;;;;;;9.86;100.00;99426.88;6096940;19;20010;-71
2023/10/04 03:52:57;;;;;;;5.53;2.60;;;;;;;9.84;100.00;99423.63;6098246;19;20022;-71
2023/10/04 03:54:57;;;;;;;5.05;2.67;;;;;;;9.88;100.00;99427.31;6098969;19;20019;-71
2023/10/04 03:56:57;;;;;;;4.13;2.47;;;;;;;9.86;100.00;99421.34;6097663;19;20455;-71
2023/10/04 03:58:58;;;;;;;4.47;2.50;;;;;;;9.82;100.00;99415.69;6102215;19;20712;-71
2023/10/04 04:01:01;;;;;;;4.80;2.45;;;;;;;9.80;100.00;99422.72;6099664;19;20023;-71
2023/10/04 04:03:03;;;;;;;4.85;2.60;;;;;;;9.77;100.00;99429.78;6104387;19;20410;-71
2023/10/04 04:05:05;;;;;;;7.18;2.53;;;;;;;9.84;100.00;99423.63;6103065;19;20084;-71
2023/10/04 04:07:05;;;;;;;5.90;2.70;;;;;;;9.87;100.00;99422.94;6103479;19;20348;-71
2023/10/04 04:09:09;;;;;;;5.03;2.55;;;;;;;9.89;100.00;99422.59;6101805;19;19999;-71
2023/10/04 04:11:09;;;;;;;6.68;2.67;;;;;;;9.88;100.00;99421.00;6103090;19;19999;-71
2023/10/04 04:13:11;;;;;;;8.07;2.90;;;;;;;9.88;100.00;99424.56;6102824;19;20098;-71
2023/10/04 04:15:23;;;;;;;6.60;2.50;;;;;;;9.85;100.00;99420.53;6102892;19;20017;-71
2023/10/04 04:17:24;;;;;;;6.68;2.88;;;;;;;9.87;100.00;99411.88;6104122;19;20014;-71
2023/10/04 04:19:26;;;;;;;9.18;3.42;;;;;;;9.84;100.00;99418.91;6103039;19;20090;-71
2023/10/04 04:21:29;;;;;;;9.18;2.63;;;;;;;9.87;100.00;99417.41;6102258;19;20015;-71
2023/10/04 04:23:31;;;;;;;5.95;2.75;;;;;;;9.82;100.00;99407.41;6104085;19;20015;-71
2023/10/04 04:25:33;;;;;;;6.65;2.70;;;;;;;9.79;100.00;99416.41;6102814;19;20045;-71
2023/10/04 04:27:34;;;;;;;7.68;3.20;;;;;;;9.75;100.00;99409.94;6102609;19;20013;-71
2023/10/04 04:29:35;;;;;;;5.50;2.85;;;;;;;9.79;100.00;99412.84;6102413;19;20003;-71
2023/10/04 04:31:40;;;;;;;4.93;2.58;;;;;;;9.79;100.00;99399.03;6102235;19;20015;-71
2023/10/04 04:33:41;;;;;;;4.72;2.53;;;;;;;9.78;100.00;99411.22;6101306;19;20090;-71
2023/10/04 04:37:45;;;;;;;5.30;3.40;;;;;;;9.79;100.00;99413.63;6102660;19;20062;-71
2023/10/04 04:39:45;;;;;;;5.22;2.75;;;;;;;9.83;100.00;99406.25;6102594;19;20041;-71
2023/10/04 04:41:48;;;;;;;8.88;3.70;;;;;;;9.92;100.00;99408.84;6102749;19;20082;-71
2023/10/04 04:43:49;;;;;;;5.10;2.75;;;;;;;9.96;100.00;99398.72;6102019;19;20003;-71
2023/10/04 04:45:51;;;;;;;5.47;3.08;;;;;;;9.98;100.00;99403.91;6101589;19;19998;-71
2023/10/04 04:47:52;;;;;;;13.40;3.33;;;;;;;9.95;100.00;99405.41;6102060;19;20030;-71
2023/10/04 04:49:54;;;;;;;8.13;2.88;;;;;;;10.00;100.00;99407.09;6103618;19;20010;-71
2023/10/04 04:51:55;;;;;;;5.80;2.70;;;;;;;10.01;100.00;99409.53;6106834;19;20011;-71
2023/10/04 04:53:56;;;;;;;5.65;3.10;;;;;;;10.01;100.00;99409.53;6108915;19;20007;-71
2023/10/04 04:55:56;;;;;;;5.45;2.53;;;;;;;10.02;100.00;99418.66;6108578;19;20013;-71
2023/10/04 04:57:56;;;;;;;6.57;2.67;;;;;;;10.00;100.00;99418.97;6108734;19;20017;-71
2023/10/04 04:59:57;;;;;;;6.95;2.90;;;;;;;10.00;100.00;99424.50;6108180;19;20066;-71
2023/10/04 05:01:57;;;;;;;6.20;2.65;;;;;;;10.00;100.00;99421.72;6108129;19;20871;-71
2023/10/04 05:03:58;;;;;;;3.25;2.40;;;;;;;9.95;100.00;99424.75;6108206;19;20003;-71
2023/10/04 05:05:58;;;;;;;5.85;2.80;;;;;;;9.96;100.00;99431.09;6109673;19;20610;-71
2023/10/04 05:07:58;;;;;;;6.60;3.03;;;;;;;9.94;100.00;99425.13;6107334;19;20039;-71
2023/10/04 05:09:59;;;;;;;7.10;3.25;;;;;;;10.01;100.00;99439.97;6108864;19;20348;-71
2023/10/04 05:11:59;;;;;;;5.30;3.05;;;;;;;10.02;100.00;99433.28;6109139;19;20031;-71
2023/10/04 05:14:00;;;;;;;6.50;3.00;;;;;;;10.03;100.00;99431.31;6109905;19;20015;-71
2023/10/04 05:16:01;;;;;;;5.72;3.13;;;;;;;10.00;100.00;99432.78;6107820;19;20494;-71
2023/10/04 05:18:04;;;;;;;7.97;4.13;;;;;;;9.95;100.00;99429.50;6107991;19;19994;-71
2023/10/04 05:20:06;;;;;;;8.30;3.33;;;;;;;9.98;100.00;99437.88;6108669;19;20010;-71
2023/10/04 05:22:07;;;;;;;5.35;3.17;;;;;;;9.97;100.00;99441.78;6107225;19;20018;-71
2023/10/04 05:24:07;;;;;;;6.82;4.18;;;;;;;9.91;100.00;99442.38;6107652;19;20014;-71
2023/10/04 05:26:12;;;;;;;5.50;3.20;;;;;;;9.95;100.00;99435.81;6109515;19;20363;-71
2023/10/04 05:28:13;;;;;;;6.80;3.30;;;;;;;9.95;100.00;99444.13;6107973;19;20070;-71
2023/10/04 05:30:16;;;;;;;5.90;3.53;;;;;;;9.94;100.00;99434.22;6107729;19;20349;-71
2023/10/04 05:32:16;;;;;;;6.03;3.53;;;;;;;9.94;100.00;99430.66;6106799;19;20525;-72
2023/10/04 05:34:16;;;;;;;5.32;3.35;;;;;;;9.90;100.00;99433.28;6109849;19;20015;-71
2023/10/04 05:36:17;;;;;;;10.63;3.85;;;;;;;9.90;100.00;99436.06;6107074;19;20002;-71
2023/10/04 05:38:18;;;;;;;4.85;3.25;;;;;;;9.98;100.00;99434.31;6108940;19;20082;-71
2023/10/04 05:40:27;;;;;;;4.60;3.00;;;;;;;9.97;100.00;99438.22;6108114;19;20007;-71
2023/10/04 05:42:27;;;;;;;7.13;3.28;;;;;;;10.00;100.00;99441.09;6108998;19;20014;-71
2023/10/04 05:44:28;;;;;;;4.43;2.58;;;;;;;10.02;100.00;99446.28;6107389;19;20017;-71
2023/10/04 05:46:29;;;;;;;5.82;3.42;;;;;;;10.04;100.00;99447.53;6106464;19;20017;-71
2023/10/04 05:48:29;;;;;;;7.03;3.45;;;;;;;10.04;100.00;99447.53;6107080;19;20031;-71
2023/10/04 05:50:32;;;;;;;6.35;3.40;;;;;;;10.04;100.00;99441.22;6106149;19;20010;-71
2023/10/04 05:52:32;;;;;;;6.30;2.83;;;;;;;10.07;100.00;99446.03;6107999;19;20007;-71
2023/10/04 05:54:33;;;;;;;5.15;2.55;;;;;;;10.05;100.00;99438.09;6107615;19;20014;-71
2023/10/04 05:56:34;;;;;;;4.85;2.75;;;;;;;10.07;100.00;99448.78;6107530;19;20046;-71
2023/10/04 05:58:34;;;;;;;6.13;2.92;;;;;;;10.09;100.00;99443.69;6109457;19;20894;-71
2023/10/04 06:00:40;;;;;;;5.38;3.03;;;;;;;10.08;100.00;99453.16;6107096;19;20477;-71
2023/10/04 06:02:41;;;;;;;7.10;3.78;;;;;;;10.09;100.00;99461.13;6109030;19;20014;-71
2023/10/04 06:04:42;;;;;;;6.72;3.00;;;;;;;10.16;100.00;99459.69;6106165;19;20332;-71
2023/10/04 06:06:44;;;;;;;7.00;3.20;;;;;;;10.18;100.00;99460.16;6105403;19;20193;-72
2023/10/04 06:08:45;;;;;;;7.85;3.10;;;;;;;10.19;100.00;99472.84;6105177;19;20015;-71
2023/10/04 06:10:53;;;;;;;4.50;3.00;;;;;;;10.22;100.00;99464.66;6104568;19;20099;-71
2023/10/04 06:12:54;;;;;;;6.00;2.75;;;;;;;10.26;100.00;99473.88;6105735;19;20383;-71
2023/10/04 06:14:54;;;;;;;6.97;3.40;;;;;;;10.29;100.00;99475.13;6104980;19;20015;-71
2023/10/04 06:16:55;;;;;;;6.13;2.95;;;;;;;10.32;100.00;99482.72;6105329;19;20011;-71
2023/10/04 06:18:58;;;;;;;10.73;4.13;;;;;;;10.34;100.00;99485.94;6105643;19;20007;-71
2023/10/04 06:20:59;;;;;;;9.88;4.15;;;;;;;10.32;100.00;99488.25;6103795;19;20028;-71
2023/10/04 06:23:09;;;;;;;6.63;3.25;;;;;;;10.33;100.00;99489.84;6109552;19;20010;-71
2023/10/04 06:25:11;;;;;;;6.75;3.13;;;;;;;10.34;100.00;99486.75;6107937;19;20805;-71
2023/10/04 06:27:12;;;;;;;5.78;3.38;;;;;;;10.37;100.00;99499.06;6108495;19;20006;-71
2023/10/04 06:29:12;;;;;;;5.22;2.97;;;;;;;10.38;100.00;99495.94;6107715;19;20006;-71
2023/10/04 06:31:13;;;;;;;7.07;3.05;;;;;;;10.40;100.00;99504.69;6107073;19;20014;-71
2023/10/04 06:33:15;;;;;;;6.90;3.40;;;;;;;10.45;100.00;99509.19;6108578;19;20080;-71
2023/10/04 06:35:16;;;;;;;6.53;3.13;;;;;;;10.56;100.00;99504.75;6108687;19;20010;-71
2023/10/04 06:37:16;;;;;;;4.18;3.00;;;;;;;10.57;100.00;99511.09;6108750;19;20042;-71
2023/10/04 06:39:17;;;;;;;6.57;3.13;;;;;;;10.52;100.00;99511.34;6107452;19;20013;-71
2023/10/04 06:41:24;;;;;;;5.03;2.60;;;;;;;10.58;100.00;99515.47;6105526;19;20411;-71
2023/10/04 06:43:24;;;;;;;5.70;2.72;;;;;;;10.58;100.00;99521.78;6106999;19;20007;-71
2023/10/04 06:45:24;;;;;;;4.55;3.22;;;;;;;10.59;100.00;99519.84;6108695;19;20484;-71
2023/10/04 06:47:25;;;;;;;5.82;3.25;;;;;;;10.67;100.00;99524.41;6108087;19;20010;-71
2023/10/04 06:49:28;;;;;;;;;;;;;;;10.66;100.00;99523.59;6108248;19;20074;-71
2023/10/04 06:51:28;;;;;;;6.13;2.90;;;;;;;10.66;100.00;99539.41;6107167;19;19915;-71
2023/10/04 06:53:28;;;;;;;5.72;2.78;;;;;;;10.68;100.00;99535.16;6107524;19;20010;-71
2023/10/04 06:55:30;;;;;;;5.25;2.78;;;;;;;10.67;100.00;99533.53;6107755;19;20015;-71
2023/10/04 06:57:30;;;;;;;7.22;3.20;;;;;;;10.71;100.00;99544.69;6107881;19;20074;-71
2023/10/04 06:59:31;;;;;;;6.78;3.20;;;;;;;10.79;100.00;99552.03;6107128;19;20372;-71
2023/10/04 07:01:31;;;;;;;4.88;3.00;;;;;;;10.80;100.00;99541.78;6106718;19;20006;-71
2023/10/04 07:03:32;;;;;;;6.20;2.75;;;;;;;10.80;100.00;99550.09;6107774;19;20013;-71
2023/10/04 07:05:35;;;;;;;6.53;2.97;;;;;;;10.82;100.00;99545.78;6107555;19;20018;-71
2023/10/04 07:07:36;;;;;;;9.65;3.83;;;;;;;10.82;100.00;99543.03;6108338;19;20015;-71
2023/10/04 07:09:36;;;;;;;8.50;3.92;;;;;;;10.88;100.00;99543.59;6106945;19;20030;-71
2023/10/04 07:11:37;;;;;;;7.55;3.97;;;;;;;10.90;100.00;99541.25;6106200;19;20014;-71
2023/10/04 07:13:39;;;;;;;7.30;2.80;;;;;;;10.97;100.00;99547.78;6107178;19;20339;-71
2023/10/04 07:15:39;;;;;;;7.32;2.92;;;;;;;11.01;100.00;99547.91;6107651;19;20013;-71
2023/10/04 07:17:41;;;;;;;9.23;3.47;;;;;;;11.09;100.00;99551.63;6106922;19;20073;-71
2023/10/04 07:19:41;;;;;;;7.47;3.05;;;;;;;11.11;100.00;99541.03;6107153;19;20011;-71
2023/10/04 07:21:42;;;;;;;8.52;4.03;;;;;;;11.17;100.00;99550.66;6107082;19;20038;-71
2023/10/04 07:23:42;;;;;;;5.95;2.45;;;;;;;11.26;100.00;99548.56;6107304;19;20019;-71
2023/10/04 07:25:44;;;;;;;16.33;4.43;;;;;;;11.31;100.00;99547.47;6107536;19;20011;-71
2023/10/04 07:27:46;;;;;;;5.25;3.17;;;;;;;11.32;100.00;99549.88;6106781;19;20078;-71
2023/10/04 07:29:46;;;;;;;5.30;2.75;;;;;;;11.28;100.00;99543.47;6107000;19;20040;-71
2023/10/04 07:31:48;;;;;;;4.80;2.60;;;;;;;11.28;100.00;99546.22;6105435;19;20190;-71
2023/10/04 07:33:48;;;;;;;6.00;2.30;;;;;;;11.28;100.00;99543.47;6110757;19;20006;-71
2023/10/04 07:35:48;;;;;;;6.10;2.45;;;;;;;11.31;100.00;99539.97;6113142;19;20418;-71
2023/10/04 07:37:49;;;;;;;3.72;2.60;;;;;;;11.26;100.00;99529.16;6112305;19;20006;-71
2023/10/04 07:39:49;;;;;;;6.57;2.67;;;;;;;11.24;100.00;99537.00;6111762;19;20017;-71
2023/10/04 07:41:50;;;;;;;4.05;2.63;;;;;;;11.22;100.00;99534.59;6108994;19;20042;-71
2023/10/04 07:43:50;;;;;;;5.57;2.80;;;;;;;11.31;100.00;99544.69;6112487;19;20506;-71
2023/10/04 07:45:51;;;;;;;5.43;2.70;;;;;;;11.32;100.00;99547.09;6111610;19;20007;-71
2023/10/04 07:47:51;;;;;;;4.22;2.50;;;;;;;11.40;100.00;99545.31;6112346;19;20007;-71
2023/10/04 07:49:52;;;;;;;4.35;2.72;;;;;;;11.42;100.00;99546.59;6101656;19;20350;-71
2023/10/04 07:51:52;;;;;;;5.70;2.72;;;;;;;11.50;100.00;99547.56;6110780;19;20017;-71
2023/10/04 07:53:53;;;;;;;9.85;3.05;;;;;;;11.54;100.00;99554.81;6111795;19;20091;-71
2023/10/04 07:55:54;;;;;;;4.88;2.42;;;;;;;11.66;100.00;99545.56;6111792;19;20379;-71
2023/10/04 07:58:02;;;;;;;5.50;2.42;;;;;;;11.74;100.00;99550.13;6110449;19;20013;-71
2023/10/04 08:00:04;;;;;;;7.78;2.75;;;;;;;11.77;100.00;99554.16;6110942;19;20006;-71
2023/10/04 08:02:05;;;;;;;4.63;2.65;;;;;;;11.77;100.00;99551.41;6110752;19;20088;-71
2023/10/04 08:04:09;;;;;;;5.03;2.65;;;;;;;11.79;100.00;99558.19;6111683;19;20002;-71
2023/10/04 08:06:11;;;;;;;3.88;2.40;;;;;;;11.88;100.00;99557.22;6109983;19;20097;-71
2023/10/04 08:08:12;;;;;;;5.32;2.50;;;;;;;11.91;100.00;99550.94;6111200;19;20933;-72
2023/10/04 08:10:13;;;;;;;5.47;2.60;;;;;;;11.96;100.00;99553.44;6110353;19;20010;-71
2023/10/04 08:12:14;;;;;;;6.95;2.75;;;;;;;12.00;100.00;99549.59;6109722;19;20320;-72
2023/10/04 08:14:15;;;;;;;12.20;2.67;;;;;;;12.07;100.00;99551.72;6111508;19;20027;-71
2023/10/04 08:16:15;;;;;;;3.30;2.13;;;;;;;12.12;100.00;99556.19;6111158;19;19994;-71
2023/10/04 08:18:16;;;;;;;5.60;2.88;;;;;;;12.12;100.00;99562.53;6111593;19;20014;-71
2023/10/04 08:20:19;;;;;;;4.25;2.60;;;;;;;12.19;100.00;99562.69;6110678;19;19999;-71
2023/10/04 08:22:22;;;;;;;6.63;2.60;;;;;;;12.23;100.00;99571.88;6110626;19;20023;-71
2023/10/04 08:24:22;;;;;;;5.07;2.40;;;;;;;12.18;100.00;99572.19;6111387;19;20014;-71
2023/10/04 08:26:23;;;;;;;3.63;2.50;;;;;;;12.20;100.00;99567.06;6110643;19;20018;-71
2023/10/04 08:28:23;;;;;;;6.40;2.55;;;;;;;12.22;100.00;99567.50;6111182;19;20690;-71
2023/10/04 08:30:25;;;;;;;6.65;2.40;;;;;;;12.32;100.00;99566.94;6109981;19;20014;-71
2023/10/04 08:32:27;;;;;;;6.60;2.30;;;;;;;12.37;100.00;99576.97;6110371;19;20014;-71
2023/10/04 08:34:27;;;;;;;5.18;2.70;;;;;;;12.41;100.00;99575.03;6110723;19;20010;-71
2023/10/04 08:36:28;;;;;;;5.20;2.60;;;;;;;12.45;100.00;99584.28;6110260;19;20094;-71
2023/10/04 08:38:28;;;;;;;5.90;2.50;;;;;;;12.49;100.00;99576.81;6111225;19;20102;-71
2023/10/04 08:40:29;;;;;;;10.35;4.03;;;;;;;12.58;100.00;99593.28;6108734;19;20344;-71
2023/10/04 08:42:29;;;;;;;6.32;2.65;;;;;;;12.63;100.00;99595.75;6108356;19;20522;-71
2023/10/04 08:44:30;;;;;;;10.65;3.42;;;;;;;12.72;100.00;99609.41;6109853;19;20686;-71
2023/10/04 08:46:31;;;;;;;4.65;2.05;;;;;;;12.77;100.00;99601.59;6110799;19;20006;-71
2023/10/04 08:48:33;;;;;;;4.57;2.27;;;;;;;12.86;100.00;99595.81;6110534;19;20010;-71
2023/10/04 08:50:33;;;;;;;8.05;3.58;;;;;;;12.81;100.00;99587.78;6102458;19;20090;-71
2023/10/04 08:52:36;;;;;;;5.55;2.35;;;;;;;12.83;100.00;99594.59;6102394;19;20007;-71
2023/10/04 08:54:39;;;;;;;4.70;2.13;;;;;;;12.88;100.00;99604.59;6103009;19;20371;-71
2023/10/04 08:56:49;;;;;;;5.93;2.55;;;;;;;12.93;100.00;99602.34;6103465;19;20010;-71
2023/10/04 08:58:50;;;;;;;3.72;2.10;;;;;;;13.04;100.00;99610.88;6102854;19;20014;-71
2023/10/04 09:00:51;;;;;;;3.13;2.08;;;;;;;13.13;100.00;99603.09;6102143;19;20014;-71
2023/10/04 09:02:51;;;;;;;4.50;2.28;;;;;;;13.19;100.00;99595.28;6104469;19;20227;-71
2023/10/04 09:04:53;;;;;;;4.90;2.20;;;;;;;13.29;100.00;99599.44;6103561;19;20085;-71
2023/10/04 09:06:53;;;;;;;4.93;2.10;;;;;;;13.35;100.00;99590.44;6104492;19;20006;-71
2023/10/04 09:08:54;;;;;;;5.18;2.35;;;;;;;13.44;100.00;99596.56;6103692;19;20473;-71
2023/10/04 09:10:55;;;;;;;4.82;2.08;;;;;;;13.44;100.00;99602.13;6102336;19;20007;-72
2023/10/04 09:12:56;;;;;;;3.60;1.93;;;;;;;13.52;100.00;99605.03;6103735;19;20011;-71
2023/10/04 09:14:56;;;;;;;4.22;2.25;;;;;;;13.57;100.00;99613.06;6104242;19;20013;-71
2023/10/04 09:17:07;;;;;;;9.70;2.67;;;;;;;13.61;100.00;99611.94;6103372;19;20450;-71
2023/10/04 09:19:14;;;;;;;6.80;2.75;;;;;;;13.64;100.00;99608.41;6103586;19;20037;-71
2023/10/04 09:21:15;;;;;;;5.88;2.40;;;;;;;13.69;100.00;99612.88;6102110;19;20086;-71
2023/10/04 09:23:22;;;;;;;8.02;2.28;;;;;;;13.73;100.00;99605.38;6104107;19;20074;-71
2023/10/04 09:25:22;;;;;;;6.13;2.25;;;;;;;13.81;100.00;99614.66;6103376;19;20011;-71
2023/10/04 09:27:23;;;;;;;5.18;2.40;;;;;;;13.86;100.00;99609.59;6102831;19;20014;-71
2023/10/04 09:29:32;;;;;;;6.38;2.65;;;;;;;13.88;100.00;99610.00;6102737;19;20102;-71
2023/10/04 09:31:53;;;;;;;4.00;2.30;;;;;;;14.00;100.00;99615.38;6101297;19;20446;-72